Time;durP1;ratioP1;P1;durP2;ratioP2;P2;SDS_P1;SDS_P2;PMS_P1;PMS_P2;Temp;Humidity;BMP_temperature;BMP_pressure;BME280_temperature;BME280_humidity;BME280_pressure;Samples;Min_cycle;Max_cycle;Signal;HPM_P1;HPM_P2
2022/12/23 00:00:20;;;;;;;38.97;23.95;;;;;;;9.27;100.00;100246.41;5011192;28;20022;-78
2022/12/23 00:02:45;;;;;;;35.50;24.40;;;;;;;9.27;100.00;100256.06;5029288;28;20025;-78
2022/12/23 00:05:11;;;;;;;39.38;25.33;;;;;;;9.25;100.00;100253.56;5021761;28;20025;-76
2022/12/23 00:07:37;;;;;;;38.97;26.58;;;;;;;9.25;100.00;100248.31;5028008;28;20033;-77
2022/12/23 00:10:05;;;;;;;38.03;27.25;;;;;;;9.27;100.00;100261.31;5014234;28;20033;-77
2022/12/23 00:15:15;;;;;;;42.55;28.92;;;;;;;9.28;100.00;100268.22;5032360;28;20409;-77
2022/12/23 00:17:42;;;;;;;46.00;30.15;;;;;;;9.29;100.00;100275.97;5031729;28;20108;-77
2022/12/23 00:20:10;;;;;;;42.28;30.05;;;;;;;9.30;100.00;100272.41;5031939;28;20466;-77
2022/12/23 00:25:19;;;;;;;47.05;30.80;;;;;;;9.30;100.00;100271.56;5027657;28;20125;-77
2022/12/23 00:28:00;;;;;;;46.20;30.52;;;;;;;9.30;100.00;100275.03;5033167;28;20104;-77
2022/12/23 00:30:28;;;;;;;47.50;30.48;;;;;;;9.30;100.00;100277.66;5030954;28;20367;-77
2022/12/23 00:32:53;;;;;;;48.40;30.83;;;;;;;9.31;100.00;100273.25;5032162;28;20052;-77
2022/12/23 00:35:21;;;;;;;43.00;30.63;;;;;;;9.32;100.00;100274.91;5033252;28;20029;-77
2022/12/23 00:37:46;;;;;;;47.72;30.00;;;;;;;9.31;100.00;100279.31;5012648;28;20022;-77
2022/12/23 00:43:00;;;;;;;42.38;29.23;;;;;;;9.29;100.00;100283.84;5032914;28;20125;-77
2022/12/23 00:45:26;;;;;;;45.00;28.60;;;;;;;9.29;100.00;100286.47;5010500;28;20112;-77
2022/12/23 00:50:37;;;;;;;55.33;27.25;;;;;;;9.29;100.00;100304.84;5031306;28;20099;-78
2022/12/23 00:53:06;;;;;;;47.08;28.75;;;;;;;9.29;100.00;100311.91;5002442;28;20033;-78
2022/12/23 00:55:31;;;;;;;45.72;27.83;;;;;;;9.30;100.00;100305.69;5021886;28;20029;-77
2022/12/23 00:57:57;;;;;;;43.15;28.08;;;;;;;9.28;100.00;100313.69;5029118;28;20029;-78
2022/12/23 01:05:35;;;;;;;43.67;29.52;;;;;;;9.29;100.00;100315.38;5029672;28;20104;-77
2022/12/23 01:06:01;;;;;;;48.53;30.15;;;;;;;9.30;100.00;100322.28;5028587;28;20040;-77
2022/12/23 01:08:27;;;;;;;43.65;31.00;;;;;;;9.31;100.00;100326.56;5012694;28;20119;-77
2022/12/23 01:10:52;;;;;;;47.90;30.35;;;;;;;9.30;100.00;100319.66;5012068;28;20193;-77
2022/12/23 01:13:21;;;;;;;50.17;29.02;;;;;;;9.31;100.00;100318.69;5011855;28;20049;-77
2022/12/23 01:15:47;;;;;;;40.33;29.00;;;;;;;9.30;100.00;100324.91;5030334;28;20041;-77
2022/12/23 01:18:12;;;;;;;43.85;29.45;;;;;;;9.30;100.00;100324.91;5011691;28;20445;-77
2022/12/23 01:20:39;;;;;;;43.70;30.42;;;;;;;9.30;100.00;100330.16;5031313;28;20018;-77
2022/12/23 01:23:04;;;;;;;50.63;30.33;;;;;;;9.30;100.00;100322.28;5029283;28;20068;-77
2022/12/23 01:25:30;;;;;;;47.22;30.33;;;;;;;9.30;100.00;100319.66;5030713;28;20053;-78
2022/12/23 01:27:55;;;;;;;45.97;30.48;;;;;;;9.30;100.00;100319.66;5030621;28;20044;-78
2022/12/23 01:30:22;;;;;;;53.97;31.38;;;;;;;9.29;100.00;100328.47;5029141;28;20105;-78
2022/12/23 01:32:47;;;;;;;47.83;32.80;;;;;;;9.32;100.00;100332.66;5012170;28;20084;-77
2022/12/23 01:35:14;;;;;;;48.58;32.13;;;;;;;9.28;100.00;100326.81;5012115;28;20116;-77
2022/12/23 01:37:39;;;;;;;48.15;32.50;;;;;;;9.29;100.00;100330.28;5028479;28;20454;-78
2022/12/23 01:40:06;;;;;;;49.53;33.33;;;;;;;9.28;100.00;100326.81;5013195;28;20032;-77
2022/12/23 01:42:44;;;;;;;52.88;36.05;;;;;;;9.29;100.00;100328.47;5012684;28;20063;-77
2022/12/23 01:45:15;;;;;;;54.83;35.17;;;;;;;9.28;100.00;100333.84;5011238;28;20072;-77
2022/12/23 01:47:56;;;;;;;52.88;34.97;;;;;;;9.29;100.00;100338.16;5011223;28;20040;-77
2022/12/23 01:50:31;;;;;;;49.78;33.55;;;;;;;9.27;100.00;100340.91;4999269;28;20053;-76
2022/12/23 01:53:08;;;;;;;49.75;34.78;;;;;;;9.27;100.00;100345.31;5030770;28;20032;-77
2022/12/23 01:55:39;;;;;;;51.13;36.33;;;;;;;9.27;100.00;100351.41;5011699;28;20037;-77
2022/12/23 01:58:14;;;;;;;49.70;35.17;;;;;;;9.26;100.00;100354.13;5030544;28;20047;-77
2022/12/23 02:03:43;;;;;;;47.35;35.10;;;;;;;9.25;100.00;100361.19;5012992;28;20389;-77
2022/12/23 02:09:24;;;;;;;50.58;35.53;;;;;;;9.25;100.00;100368.22;5013667;28;20041;-77
2022/12/23 02:12:14;;;;;;;52.15;35.22;;;;;;;9.26;100.00;100364.63;5029864;28;20040;-77
2022/12/23 02:17:41;;;;;;;45.38;33.58;;;;;;;9.27;100.00;100369.78;5028771;28;20041;-77
2022/12/23 02:20:21;;;;;;;45.05;33.80;;;;;;;9.25;100.00;100368.22;5027915;28;20446;-77
2022/12/23 02:23:24;;;;;;;42.55;33.20;;;;;;;9.27;100.00;100361.91;5011438;28;20536;-76
2022/12/23 02:26:20;;;;;;;43.63;33.17;;;;;;;9.27;100.00;100367.16;5028930;28;20773;-77
2022/12/23 02:29:13;;;;;;;42.85;32.25;;;;;;;9.26;100.00;100375.97;5029645;28;20022;-77
2022/12/23 02:31:47;;;;;;;40.50;31.33;;;;;;;9.27;100.00;100382.06;5029016;28;20157;-77
2022/12/23 02:34:34;;;;;;;42.38;32.00;;;;;;;9.26;100.00;100375.97;5011653;28;20037;-77
2022/12/23 02:37:21;;;;;;;42.05;31.30;;;;;;;9.25;100.00;100389.22;5028081;28;20033;-77
2022/12/23 02:40:10;;;;;;;38.92;31.75;;;;;;;9.26;100.00;100404.00;5029194;28;20022;-77
2022/12/23 02:43:11;;;;;;;37.03;30.75;;;;;;;9.25;100.00;100410.22;5027676;28;20037;-77
2022/12/23 02:45:55;;;;;;;38.92;31.42;;;;;;;9.25;100.00;100421.56;5008524;28;20116;-77
2022/12/23 02:48:33;;;;;;;38.55;29.70;;;;;;;9.24;100.00;100421.66;5010263;28;20030;-77
2022/12/23 02:51:00;;;;;;;36.40;29.60;;;;;;;9.22;100.00;100427.03;5028553;28;20029;-77
2022/12/23 02:53:33;;;;;;;40.72;28.70;;;;;;;9.23;100.00;100428.72;5003657;28;20478;-77
2022/12/23 02:56:00;;;;;;;38.13;28.10;;;;;;;9.23;100.00;100433.97;5011444;28;20032;-77
2022/12/23 02:58:33;;;;;;;39.28;28.90;;;;;;;9.23;100.00;100439.22;5026150;28;20359;-77
2022/12/23 03:01:00;;;;;;;34.42;27.80;;;;;;;9.23;100.00;100423.47;5028167;28;20466;-76
2022/12/23 03:03:26;;;;;;;34.90;27.27;;;;;;;9.23;100.00;100425.25;5029645;28;20026;-79
2022/12/23 03:05:53;;;;;;;37.50;27.27;;;;;;;9.21;100.00;100425.38;5027850;28;20083;-79
2022/12/23 03:08:30;;;;;;;33.88;26.63;;;;;;;9.24;100.00;100429.53;5028675;28;20064;-79
2022/12/23 03:11:04;;;;;;;33.67;27.05;;;;;;;9.24;100.00;100440.03;5011004;28;20370;-76
2022/12/23 03:13:55;;;;;;;34.45;27.17;;;;;;;9.24;100.00;100438.25;5010147;28;20116;-76
2022/12/23 03:16:39;;;;;;;35.10;26.60;;;;;;;9.23;100.00;100433.97;5026210;28;20367;-77
2022/12/23 03:19:40;;;;;;;35.63;25.38;;;;;;;9.23;100.00;100431.34;5010038;28;20029;-77
2022/12/23 03:22:30;;;;;;;37.78;27.23;;;;;;;9.25;100.00;100431.22;5022962;28;20029;-77
2022/12/23 03:25:16;;;;;;;38.13;27.45;;;;;;;9.25;100.00;100432.06;5029149;28;20036;-77
2022/12/23 03:27:51;;;;;;;41.45;28.20;;;;;;;9.22;100.00;100427.03;5026322;28;20079;-76
2022/12/23 03:30:21;;;;;;;39.65;28.98;;;;;;;9.21;100.00;100420.13;5010174;28;20029;-76
2022/12/23 03:32:59;;;;;;;39.53;28.42;;;;;;;9.22;100.00;100426.19;5000853;28;20050;-76
2022/12/23 03:35:32;;;;;;;39.88;28.08;;;;;;;9.20;100.00;100418.41;5007332;28;20083;-76
2022/12/23 03:38:01;;;;;;;39.65;27.35;;;;;;;9.19;100.00;100431.66;5023991;28;20553;-77
2022/12/23 03:40:34;;;;;;;40.28;27.92;;;;;;;9.19;100.00;100432.50;5007478;28;20021;-76
2022/12/23 03:43:04;;;;;;;41.35;29.08;;;;;;;9.19;100.00;100432.50;5009695;28;20033;-76
2022/12/23 03:45:36;;;;;;;38.33;28.20;;;;;;;9.19;100.00;100426.41;5005576;28;20105;-76
2022/12/23 03:48:07;;;;;;;38.45;28.30;;;;;;;9.17;100.00;100418.66;5016675;28;20029;-77
2022/12/23 03:50:35;;;;;;;39.35;27.77;;;;;;;9.18;100.00;100422.94;5010931;28;20033;-76
2022/12/23 03:53:09;;;;;;;38.60;27.90;;;;;;;9.17;100.00;100423.88;5012796;28;20036;-79
2022/12/23 03:55:43;;;;;;;36.88;27.40;;;;;;;9.17;100.00;100429.13;5012077;28;20022;-76
2022/12/23 03:58:13;;;;;;;41.58;28.25;;;;;;;9.15;100.00;100432.84;5012719;28;20068;-77
2022/12/23 04:00:46;;;;;;;43.47;29.85;;;;;;;9.15;100.00;100423.16;5011116;28;20049;-76
2022/12/23 04:03:28;;;;;;;43.92;30.55;;;;;;;9.16;100.00;100437.13;5010372;28;20034;-77
2022/12/23 04:05:58;;;;;;;42.88;30.33;;;;;;;9.13;100.00;100435.56;5011468;28;20037;-76
2022/12/23 04:08:34;;;;;;;42.03;29.95;;;;;;;9.14;100.00;100434.63;5011316;28;20108;-77
2022/12/23 04:11:01;;;;;;;46.50;30.85;;;;;;;9.11;100.00;100443.56;5011853;28;20034;-76
2022/12/23 04:13:27;;;;;;;44.90;31.05;;;;;;;9.11;100.00;100440.94;5010348;28;20045;-76
2022/12/23 04:15:53;;;;;;;45.30;31.85;;;;;;;9.10;100.00;100454.19;5012295;28;20026;-77
2022/12/23 04:18:21;;;;;;;48.15;31.17;;;;;;;9.11;100.00;100455.84;5010846;28;20030;-77
2022/12/23 04:20:47;;;;;;;48.65;31.60;;;;;;;9.11;100.00;100455.84;5011719;28;20024;-76
2022/12/23 04:23:13;;;;;;;44.45;31.05;;;;;;;9.10;100.00;100460.25;5012695;28;20489;-77
2022/12/23 04:25:38;;;;;;;48.88;32.20;;;;;;;9.09;100.00;100457.75;5012707;28;20026;-77
2022/12/23 04:28:04;;;;;;;47.75;32.05;;;;;;;9.08;100.00;100466.56;5012137;28;20065;-77
2022/12/23 04:30:29;;;;;;;48.72;31.83;;;;;;;9.07;100.00;100470.16;5013005;28;20073;-77
2022/12/23 04:32:55;;;;;;;46.75;30.10;;;;;;;9.06;100.00;100471.09;5010458;28;20050;-77
2022/12/23 04:35:20;;;;;;;43.67;30.05;;;;;;;9.06;100.00;100476.34;5009223;28;20025;-80
2022/12/23 04:37:45;;;;;;;46.05;30.45;;;;;;;9.06;100.00;100478.97;5012268;28;20053;-77
2022/12/23 04:40:11;;;;;;;43.95;29.65;;;;;;;9.05;100.00;100474.69;5010511;28;22333;-77
2022/12/23 04:42:36;;;;;;;50.90;31.48;;;;;;;9.03;100.00;100473.94;5008370;28;20483;-77
2022/12/23 04:45:06;;;;;;;45.63;30.98;;;;;;;9.05;100.00;100464.19;5011858;28;20033;-77
2022/12/23 04:47:31;;;;;;;51.25;32.05;;;;;;;9.04;100.00;100465.13;5011339;28;20114;-77
2022/12/23 04:49:57;;;;;;;49.10;31.20;;;;;;;9.02;100.00;100464.41;5011460;28;20473;-77
2022/12/23 04:52:33;;;;;;;;;;;;;;;;;;;;;
2022/12/23 04:54:59;;;;;;;49.40;31.13;;;;;;;9.04;100.00;100459.88;5010068;28;20042;-77
2022/12/23 04:57:24;;;;;;;52.00;31.85;;;;;;;9.03;100.00;100459.03;5011531;28;20451;-77
2022/12/23 04:59:49;;;;;;;50.55;31.70;;;;;;;9.02;100.00;100456.53;5011497;28;20546;-77
2022/12/23 05:02:14;;;;;;;45.38;30.65;;;;;;;9.03;100.00;100442.47;5010364;28;20108;-77
2022/12/23 05:04:51;;;;;;;47.30;30.52;;;;;;;9.01;100.00;100447.00;5011812;28;20026;-76
2022/12/23 05:07:16;;;;;;;47.80;29.98;;;;;;;8.98;100.00;100441.97;5009519;28;20026;-77
2022/12/23 05:09:42;;;;;;;49.58;29.45;;;;;;;8.97;100.00;100448.16;4992088;28;20038;-76
2022/12/23 05:12:08;;;;;;;41.20;29.20;;;;;;;8.98;100.00;100452.47;5007093;28;20483;-77
2022/12/23 05:14:39;;;;;;;45.03;27.73;;;;;;;8.97;100.00;100453.41;4992014;28;20049;-77
2022/12/23 05:17:04;;;;;;;45.28;28.38;;;;;;;8.97;100.00;100453.41;5008049;28;20029;-77
2022/12/23 05:19:30;;;;;;;48.58;28.85;;;;;;;8.95;100.00;100461.41;5011276;28;20026;-77
2022/12/23 05:21:55;;;;;;;49.08;29.25;;;;;;;8.96;100.00;100463.06;5010653;28;20021;-77
2022/12/23 05:24:24;;;;;;;41.75;28.25;;;;;;;8.96;100.00;100470.94;5008841;28;20040;-78
2022/12/23 05:26:49;;;;;;;52.50;29.90;;;;;;;8.96;100.00;100484.06;5012213;28;20034;-77
2022/12/23 05:29:15;;;;;;;47.47;30.35;;;;;;;8.96;100.00;100491.09;5012005;28;20113;-77
2022/12/23 05:31:40;;;;;;;50.97;30.98;;;;;;;8.97;100.00;100503.28;5018337;28;20045;-77
2022/12/23 05:34:05;;;;;;;48.83;30.70;;;;;;;8.97;100.00;100496.22;5013550;28;20033;-77
2022/12/23 05:36:31;;;;;;;51.30;30.88;;;;;;;8.99;100.00;100501.38;5030126;28;20509;-77
2022/12/23 05:38:56;;;;;;;53.20;30.85;;;;;;;8.96;100.00;100499.81;5031222;28;20034;-77
2022/12/23 05:41:25;;;;;;;51.63;30.35;;;;;;;8.97;100.00;100503.28;5021367;28;20207;-77
2022/12/23 05:43:51;;;;;;;47.17;30.33;;;;;;;9.00;100.00;100508.28;5013080;28;20083;-77
2022/12/23 05:46:16;;;;;;;49.38;30.15;;;;;;;8.98;100.00;100508.41;5014278;28;20476;-80
2022/12/23 05:48:41;;;;;;;48.60;31.45;;;;;;;9.01;100.00;100507.34;5031452;28;20064;-77
2022/12/23 05:51:06;;;;;;;44.95;31.02;;;;;;;9.02;100.00;100503.78;5030515;28;20029;-77
2022/12/23 05:53:32;;;;;;;49.60;33.10;;;;;;;9.02;100.00;100501.97;5029978;28;20030;-77
2022/12/23 05:55:57;;;;;;;49.65;32.08;;;;;;;9.02;100.00;100493.28;5012154;28;20375;-77
2022/12/23 05:58:23;;;;;;;50.85;31.80;;;;;;;9.02;100.00;100488.03;5029601;28;20036;-77
2022/12/23 06:00:51;;;;;;;50.35;34.30;;;;;;;8.99;100.00;100477.75;4999357;28;20025;-77
2022/12/23 06:03:16;;;;;;;50.42;34.97;;;;;;;8.99;100.00;100477.75;5028785;28;20116;-77
2022/12/23 06:05:42;;;;;;;50.83;35.88;;;;;;;9.00;100.00;100471.56;5029679;28;20545;-77
2022/12/23 06:08:08;;;;;;;57.15;37.33;;;;;;;9.00;100.00;100474.19;5012875;28;20536;-77
2022/12/23 06:10:33;;;;;;;55.70;38.22;;;;;;;8.99;100.00;100467.25;5011205;28;20025;-77
2022/12/23 06:12:59;;;;;;;57.20;38.90;;;;;;;9.00;100.00;100458.44;5028794;28;20041;-77
2022/12/23 06:15:24;;;;;;;53.25;38.72;;;;;;;8.98;100.00;100465.59;5012994;28;20029;-77
2022/12/23 06:17:50;;;;;;;54.88;39.70;;;;;;;8.96;100.00;100457.81;5014361;28;20034;-78
2022/12/23 06:20:15;;;;;;;57.00;39.75;;;;;;;8.98;100.00;100449.84;5018454;28;20071;-77
2022/12/23 06:22:41;;;;;;;55.42;39.22;;;;;;;8.97;100.00;100453.41;5010630;28;20458;-78
2022/12/23 06:25:07;;;;;;;55.90;39.00;;;;;;;8.97;100.00;100454.25;5028868;28;20112;-77
2022/12/23 06:27:33;;;;;;;55.45;39.75;;;;;;;8.98;100.00;100455.94;5030470;28;20120;-77
2022/12/23 06:29:58;;;;;;;59.72;40.25;;;;;;;8.96;100.00;100464.88;5028855;28;20077;-77
2022/12/23 06:32:23;;;;;;;66.63;41.60;;;;;;;8.95;100.00;100460.56;5009943;28;20048;-78
2022/12/23 06:34:52;;;;;;;65.82;41.03;;;;;;;8.95;100.00;100466.66;5028779;28;20033;-77
2022/12/23 06:37:21;;;;;;;61.22;40.38;;;;;;;8.95;100.00;100466.66;5012841;28;20478;-77
2022/12/23 06:39:47;;;;;;;58.30;40.85;;;;;;;8.96;100.00;100468.31;5012104;28;20028;-78
2022/12/23 06:42:12;;;;;;;60.80;41.65;;;;;;;8.97;100.00;100475.25;5030387;28;20025;-78
2022/12/23 06:44:37;;;;;;;60.60;40.10;;;;;;;8.97;100.00;100475.25;5030916;28;20033;-77
2022/12/23 06:47:05;;;;;;;63.42;41.33;;;;;;;8.93;100.00;100484.28;5029463;28;20028;-78
2022/12/23 06:49:31;;;;;;;62.85;40.63;;;;;;;8.95;100.00;100492.88;5014392;28;20034;-78
2022/12/23 06:51:56;;;;;;;61.42;41.03;;;;;;;8.95;100.00;100486.81;5029128;28;20355;-78
2022/12/23 06:54:25;;;;;;;61.97;41.28;;;;;;;8.97;100.00;100495.41;5030670;28;20197;-78
2022/12/23 06:56:50;;;;;;;63.47;42.45;;;;;;;8.98;100.00;100499.69;5030634;28;20029;-78
2022/12/23 06:59:25;;;;;;;69.90;43.20;;;;;;;8.96;100.00;100519.97;5029080;28;20021;-78
2022/12/23 07:01:50;;;;;;;70.28;44.40;;;;;;;8.99;100.00;100530.22;5029087;28;20040;-78
2022/12/23 07:04:16;;;;;;;70.97;45.38;;;;;;;8.97;100.00;100537.38;5029145;28;20029;-78
2022/12/23 07:06:41;;;;;;;68.03;42.60;;;;;;;8.96;100.00;100539.16;4994200;28;20117;-78
2022/12/23 07:09:07;;;;;;;68.70;43.28;;;;;;;8.98;100.00;100550.38;5020694;28;20112;-78
2022/12/23 07:11:33;;;;;;;74.75;44.13;;;;;;;8.96;100.00;100546.19;5025818;28;20057;-78
2022/12/23 07:13:59;;;;;;;68.07;44.03;;;;;;;8.95;100.00;100536.66;5027631;28;20021;-78
2022/12/23 07:16:24;;;;;;;65.22;42.72;;;;;;;8.95;100.00;100513.03;5025379;28;20025;-78
2022/12/23 07:18:50;;;;;;;65.50;42.15;;;;;;;8.93;100.00;100514.94;5028912;28;20439;-81
2022/12/23 07:21:15;;;;;;;66.35;43.05;;;;;;;8.91;100.00;100511.59;5026989;28;20341;-81
2022/12/23 07:23:41;;;;;;;69.68;43.58;;;;;;;8.92;100.00;100519.34;5019255;28;20032;-78
2022/12/23 07:26:06;;;;;;;70.18;44.17;;;;;;;8.91;100.00;100516.84;4992075;28;20411;-77
2022/12/23 07:28:35;;;;;;;68.57;44.42;;;;;;;8.90;100.00;100504.66;5008700;28;20048;-78
2022/12/23 07:31:00;;;;;;;74.95;46.55;;;;;;;8.86;100.00;100521.59;5024691;28;20037;-78
2022/12/23 07:33:25;;;;;;;76.22;45.72;;;;;;;8.88;100.00;100527.56;5028829;28;20026;-78
2022/12/23 07:35:51;;;;;;;74.07;45.65;;;;;;;8.88;100.00;100511.81;5024823;28;20079;-78
2022/12/23 07:38:16;;;;;;;79.25;46.72;;;;;;;8.87;100.00;100515.38;5017536;28;20034;-77
2022/12/23 07:40:41;;;;;;;76.40;46.35;;;;;;;8.87;100.00;100504.91;5027823;28;20389;-77
2022/12/23 07:43:08;;;;;;;76.47;45.85;;;;;;;8.87;100.00;100515.38;5021208;28;20038;-77
2022/12/23 07:45:33;;;;;;;76.18;45.47;;;;;;;8.86;100.00;100509.31;5022777;28;20040;-77
2022/12/23 07:48:00;;;;;;;72.57;44.60;;;;;;;8.87;100.00;100510.13;5009535;28;20029;-78
2022/12/23 07:50:31;;;;;;;80.90;46.05;;;;;;;8.85;100.00;100512.03;5025752;28;20473;-78
2022/12/23 07:52:56;;;;;;;80.90;45.60;;;;;;;8.84;100.00;100515.59;5026908;28;20079;-78
2022/12/23 07:55:22;;;;;;;81.53;46.35;;;;;;;8.83;100.00;100519.19;5026725;28;20033;-78
2022/12/23 07:57:51;;;;;;;87.18;45.25;;;;;;;8.80;100.00;100504.47;5029776;28;20037;-78
2022/12/23 08:00:21;;;;;;;80.15;45.60;;;;;;;8.81;100.00;100502.72;5027987;28;20057;-78
2022/12/23 08:02:47;;;;;;;72.63;42.88;;;;;;;8.81;100.00;100526.31;5029201;28;20056;-78
2022/12/23 08:05:13;;;;;;;73.63;42.83;;;;;;;8.78;100.00;100517.69;5029005;28;20057;-78
2022/12/23 08:07:43;;;;;;;75.25;42.85;;;;;;;8.75;100.00;100507.44;5029536;28;20031;-78
2022/12/23 08:10:12;;;;;;;69.93;41.17;;;;;;;8.78;100.00;100496.72;5025900;28;20037;-78
2022/12/23 08:12:37;;;;;;;68.70;39.95;;;;;;;8.77;100.00;100488.97;5014855;28;20034;-78
2022/12/23 08:15:03;;;;;;;67.75;40.00;;;;;;;8.77;100.00;100495.03;5011635;28;20485;-78
2022/12/23 08:17:29;;;;;;;69.57;38.88;;;;;;;8.76;100.00;100493.38;5028065;28;20041;-78
2022/12/23 08:19:55;;;;;;;65.78;38.13;;;;;;;8.77;100.00;100481.91;5011590;28;20053;-78
2022/12/23 08:22:21;;;;;;;61.08;36.17;;;;;;;8.77;100.00;100495.03;5025492;28;20021;-78
2022/12/23 08:25:25;;;;;;;65.28;36.88;;;;;;;8.82;100.00;100507.84;5009916;28;20509;-78
2022/12/23 08:27:51;;;;;;;58.15;34.97;;;;;;;8.78;100.00;100495.88;4951776;28;20109;-78
2022/12/23 08:30:25;;;;;;;57.75;35.03;;;;;;;8.79;100.00;100506.25;4965783;28;20110;-78
2022/12/23 08:32:52;;;;;;;56.30;33.15;;;;;;;8.81;100.00;100500.09;4970369;28;20089;-78
2022/12/23 08:35:18;;;;;;;58.95;33.63;;;;;;;8.78;100.00;100504.59;4982726;28;20192;-78
2022/12/23 08:37:43;;;;;;;49.55;30.02;;;;;;;8.78;100.00;100496.72;5011547;28;20489;-78
2022/12/23 08:40:09;;;;;;;61.33;31.85;;;;;;;8.77;100.00;100492.41;5032529;28;20116;-78
2022/12/23 08:42:34;;;;;;;52.38;31.15;;;;;;;8.81;100.00;100489.59;5031038;28;20386;-78
2022/12/23 08:44:59;;;;;;;52.35;29.08;;;;;;;8.78;100.00;100475.72;5031664;28;20076;-78
2022/12/23 08:47:25;;;;;;;52.30;30.27;;;;;;;8.76;100.00;100471.53;5014036;28;20025;-78
2022/12/23 08:49:53;;;;;;;52.65;29.45;;;;;;;8.77;100.00;100481.09;5012607;28;20091;-77
2022/12/23 08:52:22;;;;;;;46.28;28.88;;;;;;;8.75;100.00;100475.94;5013745;28;20049;-77
2022/12/23 08:54:47;;;;;;;54.67;29.75;;;;;;;8.77;100.00;100468.81;5013542;28;20075;-80
2022/12/23 08:57:12;;;;;;;46.47;28.30;;;;;;;8.79;100.00;100463.44;5031680;28;20034;-79
2022/12/23 08:59:38;;;;;;;47.92;27.60;;;;;;;8.79;100.00;100466.91;5031142;28;20040;-76
2022/12/23 09:02:10;;;;;;;47.40;27.63;;;;;;;8.81;100.00;100469.44;5013699;28;20033;-77
2022/12/23 09:04:35;;;;;;;47.72;27.02;;;;;;;8.81;100.00;100452.88;5031280;28;20428;-76
2022/12/23 09:07:07;;;;;;;43.38;25.35;;;;;;;8.81;100.00;100447.63;5016636;28;20034;-76
2022/12/23 09:09:33;;;;;;;43.78;25.52;;;;;;;8.82;100.00;100436.19;5015992;28;20053;-76
2022/12/23 09:11:58;;;;;;;42.58;24.08;;;;;;;8.82;100.00;100428.31;5015957;28;20101;-77
2022/12/23 09:14:23;;;;;;;39.63;23.38;;;;;;;8.81;100.00;100429.28;5028447;28;20033;-77
2022/12/23 09:16:51;;;;;;;39.95;23.35;;;;;;;8.83;100.00;100430.00;5010629;28;20080;-77
2022/12/23 09:19:16;;;;;;;42.58;23.08;;;;;;;8.83;100.00;100424.75;5012470;28;20022;-77
2022/12/23 09:21:42;;;;;;;41.22;22.88;;;;;;;8.82;100.00;100425.69;4994051;28;20068;-77
2022/12/23 09:24:07;;;;;;;34.58;21.70;;;;;;;8.82;100.00;100412.56;5012191;28;20022;-77
2022/12/23 09:26:33;;;;;;;39.35;21.05;;;;;;;8.82;100.00;100410.78;5011533;28;20026;-76
2022/12/23 09:28:58;;;;;;;43.30;21.92;;;;;;;8.83;100.00;100414.25;5015463;28;20029;-77
2022/12/23 09:31:25;;;;;;;36.97;20.80;;;;;;;8.81;100.00;100419.59;5031630;28;20045;-79
2022/12/23 09:33:51;;;;;;;40.58;21.38;;;;;;;8.83;100.00;100419.50;5013643;28;20062;-77
2022/12/23 09:36:17;;;;;;;35.17;19.48;;;;;;;8.84;100.00;100415.94;5010466;28;20065;-77
2022/12/23 09:38:43;;;;;;;34.10;18.85;;;;;;;8.83;100.00;100409.84;4993920;28;20026;-77
2022/12/23 09:41:20;;;;;;;33.92;19.52;;;;;;;8.85;100.00;100410.56;5009876;28;20034;-77
2022/12/23 09:44:13;;;;;;;36.10;18.52;;;;;;;8.86;100.00;100408.78;5011890;28;20164;-77
2022/12/23 09:46:48;;;;;;;33.08;18.77;;;;;;;8.85;100.00;100391.38;5019655;28;20024;-77
2022/12/23 09:49:17;;;;;;;29.45;17.08;;;;;;;8.85;100.00;100386.97;5012846;28;20029;-79
2022/12/23 09:51:44;;;;;;;26.80;17.05;;;;;;;8.84;100.00;100384.44;5029035;28;20075;-79
2022/12/23 09:54:20;;;;;;;27.60;17.40;;;;;;;8.84;100.00;100382.66;5030254;28;20021;-79
2022/12/23 09:56:57;;;;;;;33.60;18.08;;;;;;;8.88;100.00;100396.38;5011115;28;20038;-77
2022/12/23 09:59:29;;;;;;;29.70;16.45;;;;;;;8.87;100.00;100397.34;5028858;28;20033;-77
2022/12/23 10:02:28;;;;;;;32.83;17.48;;;;;;;8.95;100.00;100397.59;5030649;28;20075;-78
2022/12/23 10:05:14;;;;;;;29.92;16.38;;;;;;;8.95;100.00;100401.06;5012658;28;20108;-79
2022/12/23 10:07:46;;;;;;;26.35;16.45;;;;;;;8.90;100.00;100404.97;5024878;28;20091;-79
2022/12/23 10:10:47;;;;;;;28.02;16.23;;;;;;;8.92;100.00;100388.16;5029646;28;20048;-79
2022/12/23 10:13:38;;;;;;;30.08;17.77;;;;;;;8.93;100.00;100375.88;5012907;28;20028;-76
2022/12/23 10:16:33;;;;;;;33.45;18.10;;;;;;;8.91;100.00;100365.50;5010946;28;20634;-79
2022/12/23 10:19:21;;;;;;;34.00;18.13;;;;;;;8.92;100.00;100367.19;5029081;28;20025;-79
2022/12/23 10:22:04;;;;;;;34.10;19.25;;;;;;;8.89;100.00;100361.31;5012661;28;20441;-76
2022/12/23 10:24:40;;;;;;;29.60;18.35;;;;;;;8.92;100.00;100353.22;5009990;28;20037;-79
2022/12/23 10:27:36;;;;;;;35.97;19.95;;;;;;;8.94;100.00;100339.03;5029499;28;20477;-79
2022/12/23 10:30:11;;;;;;;33.35;18.60;;;;;;;8.96;100.00;100344.16;5028451;28;20037;-79
2022/12/23 10:33:01;;;;;;;29.48;18.60;;;;;;;8.96;100.00;100336.28;5029804;28;20124;-79
2022/12/23 10:35:54;;;;;;;30.80;18.13;;;;;;;8.99;100.00;100320.31;5029636;28;20107;-76
2022/12/23 10:38:22;;;;;;;26.42;17.90;;;;;;;9.04;100.00;100313.75;5008165;28;20116;-79
2022/12/23 10:41:14;;;;;;;27.83;18.00;;;;;;;9.12;100.00;100321.06;5030402;28;20033;-79
2022/12/23 10:43:55;;;;;;;26.30;16.42;;;;;;;9.14;100.00;100313.88;5030350;28;20091;-79
2022/12/23 10:46:35;;;;;;;27.90;16.70;;;;;;;9.17;100.00;100305.78;5027829;28;20037;-78
2022/12/23 10:49:13;;;;;;;22.10;15.98;;;;;;;9.19;100.00;100301.25;5012897;28;20108;-77
2022/12/23 10:51:56;;;;;;;28.02;15.25;;;;;;;9.19;100.00;100295.16;5005811;28;20613;-77
2022/12/23 10:54:32;;;;;;;25.35;14.93;;;;;;;9.16;100.00;100287.53;5010317;28;20033;-77
2022/12/23 10:56:58;;;;;;;21.42;13.45;;;;;;;9.15;100.00;100284.06;5002907;28;20108;-77
2022/12/23 10:59:29;;;;;;;26.13;14.30;;;;;;;9.14;100.00;100277.16;5028653;28;20026;-78
2022/12/23 11:02:23;;;;;;;18.30;12.40;;;;;;;9.16;100.00;100264.75;5029598;28;20029;-77
2022/12/23 11:04:49;;;;;;;18.20;11.82;;;;;;;9.11;100.00;100262.47;5029066;28;20060;-77
2022/12/23 11:07:27;;;;;;;22.90;12.52;;;;;;;9.15;100.00;100252.56;5009460;28;20068;-76
2022/12/23 11:09:57;;;;;;;20.08;12.38;;;;;;;9.13;100.00;100244.00;5023712;28;20470;-77
2022/12/23 11:12:35;;;;;;;20.45;12.30;;;;;;;9.13;100.00;100244.00;5027968;28;20036;-76
2022/12/23 11:15:00;;;;;;;20.58;12.27;;;;;;;9.15;100.00;100246.50;5028539;28;20035;-77
2022/12/23 11:17:29;;;;;;;22.92;12.13;;;;;;;9.12;100.00;100242.31;5009970;28;20025;-77
2022/12/23 11:20:09;;;;;;;21.98;12.10;;;;;;;9.12;100.00;100242.31;5010791;28;20021;-77
2022/12/23 11:22:35;;;;;;;19.75;11.77;;;;;;;9.07;100.00;100249.72;5011123;28;20052;-76
2022/12/23 11:25:29;;;;;;;16.38;11.40;;;;;;;9.10;100.00;100249.47;5028441;28;20464;-77
2022/12/23 11:28:01;;;;;;;18.55;11.30;;;;;;;9.03;100.00;100238.63;5027066;28;20049;-77
2022/12/23 11:30:28;;;;;;;20.90;11.38;;;;;;;8.98;100.00;100229.44;5027834;28;20030;-77
2022/12/23 11:32:55;;;;;;;21.60;10.95;;;;;;;8.98;100.00;100221.56;5029284;28;20047;-77
2022/12/23 11:35:39;;;;;;;21.05;11.40;;;;;;;9.00;100.00;100219.66;5010493;28;20108;-77
2022/12/23 11:38:13;;;;;;;23.33;11.48;;;;;;;8.99;100.00;100220.63;5028572;28;20025;-76
2022/12/23 11:40:38;;;;;;;19.55;10.65;;;;;;;8.94;100.00;100207.84;5010418;28;20569;-77
2022/12/23 11:43:11;;;;;;;19.30;10.48;;;;;;;8.94;100.00;100197.34;5029728;28;20030;-76
2022/12/23 11:45:38;;;;;;;18.33;11.23;;;;;;;8.95;100.00;100192.94;5029931;28;20021;-77
2022/12/23 11:48:05;;;;;;;19.30;10.02;;;;;;;8.94;100.00;100188.66;5028777;28;20029;-77